createdAt,value
2023-01-15T00:01:50.016Z,4.20
2023-01-15T00:04:18.147Z,5.45
2023-01-15T00:06:44.736Z,3.90
2023-01-15T00:09:15.372Z,4.47
2023-01-15T00:11:42.028Z,4.90
2023-01-15T00:14:08.689Z,4.20
2023-01-15T00:16:35.324Z,4.47
2023-01-15T00:19:04.333Z,5.03
2023-01-15T00:21:31.368Z,3.20
2023-01-15T00:24:16.456Z,5.43
2023-01-15T00:27:01.732Z,5.85
2023-01-15T00:29:28.663Z,3.38
2023-01-15T00:31:58.997Z,4.05
2023-01-15T00:34:26.808Z,5.13
2023-01-15T00:36:53.706Z,3.90
2023-01-15T00:39:20.520Z,4.05
2023-01-15T00:41:47.758Z,5.97
2023-01-15T00:44:14.372Z,5.43
2023-01-15T00:46:41.037Z,4.38
2023-01-15T00:49:07.927Z,4.03
2023-01-15T00:51:35.096Z,4.70
2023-01-15T00:54:02.004Z,3.83
2023-01-15T00:56:28.921Z,4.40
2023-01-15T00:58:55.527Z,4.63
2023-01-15T01:01:22.271Z,3.53
2023-01-15T01:03:49.068Z,3.95
2023-01-15T01:06:17.106Z,3.88
2023-01-15T01:08:46.153Z,6.07
2023-01-15T01:11:15.593Z,5.32
2023-01-15T01:13:42.553Z,7.07
2023-01-15T01:16:30.612Z,3.63
2023-01-15T01:18:58.659Z,3.65
2023-01-15T01:21:26.124Z,2.90
2023-01-15T01:23:52.910Z,5.22
2023-01-15T01:26:19.641Z,4.28
2023-01-15T01:28:53.969Z,4.82
2023-01-15T01:31:21.463Z,5.45
2023-01-15T01:33:53.244Z,5.25
2023-01-15T01:36:20.334Z,5.35
2023-01-15T01:38:50.027Z,4.00
2023-01-15T01:41:18.813Z,3.38
2023-01-15T01:44:30.493Z,5.25
2023-01-15T01:46:56.974Z,3.42
2023-01-15T01:49:24.789Z,3.22
2023-01-15T01:52:01.274Z,7.22
2023-01-15T01:54:30.632Z,3.10
2023-01-15T01:56:57.522Z,6.22
2023-01-15T01:59:26.226Z,3.90
2023-01-15T02:01:53.451Z,3.95
2023-01-15T02:04:22.916Z,4.97
2023-01-15T02:06:51.217Z,4.43
2023-01-15T02:09:18.424Z,3.95
2023-01-15T02:11:45.233Z,4.70
2023-01-15T02:14:22.563Z,6.03
2023-01-15T02:17:05.499Z,2.67
2023-01-15T02:19:56.740Z,4.93
2023-01-15T02:22:41.558Z,4.60
2023-01-15T02:25:17.335Z,5.63
2023-01-15T02:27:49.277Z,3.72
2023-01-15T02:30:32.329Z,2.65
2023-01-15T02:33:35.568Z,3.92
2023-01-15T02:36:06.701Z,5.72
2023-01-15T02:38:37.772Z,5.18
2023-01-15T02:41:07.172Z,3.90
2023-01-15T02:43:37.218Z,2.50
2023-01-15T02:46:06.391Z,3.85
2023-01-15T02:48:36.862Z,5.88
2023-01-15T02:51:28.660Z,4.97
2023-01-15T02:53:59.598Z,3.13
2023-01-15T02:56:30.209Z,7.78
2023-01-15T02:59:02.243Z,3.35
2023-01-15T03:01:36.240Z,2.28
2023-01-15T03:04:10.354Z,3.55
2023-01-15T03:06:46.302Z,4.88
2023-01-15T03:09:15.070Z,5.07
2023-01-15T03:12:08.172Z,5.05
2023-01-15T03:14:46.589Z,2.88
2023-01-15T03:17:56.526Z,3.17
2023-01-15T03:20:28.037Z,4.70
2023-01-15T03:23:00.768Z,5.97
2023-01-15T03:25:36.704Z,3.60
2023-01-15T03:28:05.578Z,11.63
2023-01-15T03:30:33.525Z,7.15
2023-01-15T03:33:00.261Z,4.72
2023-01-15T03:35:58.760Z,5.90
2023-01-15T03:38:31.085Z,5.53
2023-01-15T03:41:20.914Z,3.85
2023-01-15T03:43:59.480Z,3.22
2023-01-15T03:46:47.351Z,5.65
2023-01-15T03:49:20.046Z,3.65
2023-01-15T03:52:08.671Z,4.68
2023-01-15T03:55:06.084Z,4.70
2023-01-15T03:57:41.904Z,4.60
2023-01-15T04:00:32.212Z,4.10
2023-01-15T04:03:01.655Z,4.85
2023-01-15T04:05:28.966Z,3.95
2023-01-15T04:07:57.860Z,5.63
2023-01-15T04:10:24.633Z,4.68
2023-01-15T04:12:51.139Z,4.03
2023-01-15T04:15:17.744Z,3.17
2023-01-15T04:17:44.785Z,5.40
2023-01-15T04:20:11.837Z,5.00
2023-01-15T04:22:38.568Z,4.63
2023-01-15T04:25:06.334Z,5.72
2023-01-15T04:27:33.019Z,3.55
2023-01-15T04:29:59.547Z,4.60
2023-01-15T04:32:26.729Z,5.05
2023-01-15T04:34:53.231Z,2.45
2023-01-15T04:37:19.786Z,4.32
2023-01-15T04:39:47.328Z,3.65
2023-01-15T04:42:32.954Z,2.22
2023-01-15T04:44:59.676Z,3.60
2023-01-15T04:47:26.225Z,5.05
2023-01-15T04:49:52.727Z,3.55
2023-01-15T04:52:19.618Z,3.80
2023-01-15T04:54:46.302Z,5.25
2023-01-15T04:57:12.897Z,3.67
2023-01-15T04:59:39.692Z,3.22
2023-01-15T05:02:07.053Z,3.70
2023-01-15T05:04:35.068Z,3.63
2023-01-15T05:07:03.121Z,5.97
2023-01-15T05:09:29.815Z,3.15
2023-01-15T05:11:56.327Z,3.10
2023-01-15T05:14:23.104Z,4.68
2023-01-15T05:16:49.655Z,4.88
2023-01-15T05:19:16.219Z,6.80
2023-01-15T05:21:44.203Z,3.53
2023-01-15T05:24:14.189Z,3.72
2023-01-15T05:26:40.759Z,5.93
2023-01-15T05:29:07.429Z,7.85
2023-01-15T05:31:34.101Z,4.28
2023-01-15T05:34:00.870Z,4.53
2023-01-15T05:36:30.333Z,4.28
2023-01-15T05:39:01.634Z,4.82
2023-01-15T05:41:47.936Z,3.45
2023-01-15T05:44:16.042Z,3.33
2023-01-15T05:46:43.691Z,3.95
2023-01-15T05:49:13.242Z,6.05
2023-01-15T05:51:41.372Z,6.03
2023-01-15T05:54:11.918Z,3.45
2023-01-15T05:56:38.847Z,5.88
2023-01-15T05:59:06.598Z,4.28
2023-01-15T06:01:33.480Z,3.40
2023-01-15T06:04:02.022Z,6.18
2023-01-15T06:06:29.317Z,4.68
2023-01-15T06:08:56.050Z,3.72
2023-01-15T06:11:23.058Z,5.10
2023-01-15T06:13:49.620Z,4.85
2023-01-15T06:16:16.383Z,4.82
2023-01-15T06:18:43.003Z,4.45
2023-01-15T06:21:11.831Z,5.72
2023-01-15T06:23:39.577Z,6.38
2023-01-15T06:26:08.741Z,5.35
2023-01-15T06:28:35.322Z,4.70
2023-01-15T06:31:05.625Z,4.43
2023-01-15T06:33:32.301Z,3.10
2023-01-15T06:35:58.861Z,5.00
2023-01-15T06:38:25.436Z,5.40
2023-01-15T06:40:52.103Z,4.53
2023-01-15T06:43:36.921Z,3.58
2023-01-15T06:46:22.664Z,4.05
2023-01-15T06:48:49.809Z,5.47
2023-01-15T06:51:20.826Z,3.35
2023-01-15T06:56:15.162Z,2.78
2023-01-15T06:58:43.039Z,5.18
2023-01-15T07:01:11.228Z,3.75
2023-01-15T07:03:37.975Z,4.78
2023-01-15T07:06:09.204Z,5.20
2023-01-15T07:08:36.258Z,2.55
2023-01-15T07:11:08.624Z,3.28
2023-01-15T07:13:36.665Z,3.38
2023-01-15T07:16:04.272Z,2.35
2023-01-15T07:18:33.802Z,2.63
2023-01-15T07:21:00.873Z,1.27
2023-01-15T07:23:28.258Z,2.70
2023-01-15T07:25:55.517Z,1.02
2023-01-15T07:28:23.009Z,0.52
2023-01-15T07:30:49.610Z,0.85
2023-01-15T07:33:16.214Z,0.77
2023-01-15T07:35:42.801Z,0.20
2023-01-15T07:38:09.489Z,1.45
2023-01-15T07:40:36.040Z,0.70
2023-01-15T07:43:32.066Z,1.27
2023-01-15T07:49:02.120Z,0.90
2023-01-15T07:51:28.647Z,1.38
2023-01-15T07:53:55.271Z,0.65
2023-01-15T07:56:21.909Z,0.43
2023-01-15T07:58:50.275Z,1.13
2023-01-15T08:01:17.020Z,0.25
2023-01-15T08:03:43.717Z,0.50
2023-01-15T08:06:10.227Z,2.95
2023-01-15T08:08:36.849Z,2.05
2023-01-15T08:11:22.000Z,1.13
2023-01-15T08:14:07.017Z,3.53
2023-01-15T08:16:36.200Z,0.35
2023-01-15T08:19:03.243Z,1.25
2023-01-15T08:21:30.057Z,0.63
2023-01-15T08:23:56.740Z,0.40
2023-01-15T08:26:23.347Z,0.30
2023-01-15T08:28:49.859Z,0.20
2023-01-15T08:31:16.597Z,0.30
2023-01-15T08:33:43.295Z,0.85
2023-01-15T08:36:09.964Z,1.05
2023-01-15T08:38:36.577Z,1.42
2023-01-15T08:41:03.939Z,1.10
2023-01-15T08:43:33.346Z,0.30
2023-01-15T08:46:01.419Z,1.42
2023-01-15T08:48:29.581Z,0.40
2023-01-15T08:50:56.135Z,0.20
2023-01-15T08:53:24.459Z,0.70
2023-01-15T08:55:51.325Z,0.20
2023-01-15T08:58:17.925Z,0.52
2023-01-15T09:00:44.670Z,0.22
2023-01-15T09:03:11.349Z,0.20
2023-01-15T09:05:38.238Z,0.82
2023-01-15T09:08:06.643Z,0.38
2023-01-15T09:10:34.518Z,0.15
2023-01-15T09:13:04.922Z,0.30
2023-01-15T09:15:33.453Z,0.20
2023-01-15T09:18:00.583Z,0.43
2023-01-15T09:20:27.318Z,0.13
2023-01-15T09:22:53.875Z,0.20
2023-01-15T09:25:23.902Z,0.38
2023-01-15T09:27:50.995Z,0.60
2023-01-15T09:30:20.857Z,0.45
2023-01-15T09:32:48.010Z,1.08
2023-01-15T09:35:15.044Z,0.75
2023-01-15T09:37:41.949Z,0.40
2023-01-15T09:40:19.231Z,0.40
2023-01-15T09:42:59.679Z,0.93
2023-01-15T09:45:27.263Z,0.75
2023-01-15T09:47:59.535Z,0.57
2023-01-15T09:51:07.962Z,1.35
2023-01-15T09:53:46.631Z,0.93
2023-01-15T09:56:25.728Z,1.58
2023-01-15T09:58:52.968Z,0.70
2023-01-15T10:01:32.246Z,1.05
2023-01-15T10:03:58.798Z,0.65
2023-01-15T10:06:32.782Z,0.68
2023-01-15T10:09:11.689Z,3.72
2023-01-15T10:12:18.701Z,1.00
2023-01-15T10:15:02.791Z,1.10
2023-01-15T10:17:39.765Z,1.00
2023-01-15T10:20:12.269Z,0.70
2023-01-15T10:22:52.572Z,0.73
2023-01-15T10:25:27.299Z,0.45
2023-01-15T10:27:57.401Z,1.23
2023-01-15T10:30:37.168Z,0.70
2023-01-15T10:33:18.802Z,0.73
2023-01-15T10:36:15.963Z,0.93
2023-01-15T10:39:01.026Z,0.65
2023-01-15T10:41:56.532Z,0.43
2023-01-15T10:44:44.080Z,0.28
2023-01-15T10:47:18.900Z,2.25
2023-01-15T10:49:46.650Z,0.43
2023-01-15T10:52:22.252Z,1.67
2023-01-15T10:54:54.077Z,0.28
2023-01-15T10:57:44.037Z,0.47
2023-01-15T11:02:42.452Z,1.10
2023-01-15T11:05:16.019Z,1.48
2023-01-15T11:08:09.131Z,0.52
2023-01-15T11:10:33.692Z,0.40
2023-01-15T11:13:34.051Z,0.52
2023-01-15T11:16:19.463Z,1.77
2023-01-15T11:19:05.134Z,0.65
2023-01-15T11:21:32.061Z,1.58
2023-01-15T11:24:00.260Z,1.90
2023-01-15T11:26:29.672Z,1.50
2023-01-15T11:28:58.638Z,1.95
2023-01-15T11:31:36.783Z,0.88
2023-01-15T11:34:06.443Z,1.33
2023-01-15T11:36:34.434Z,0.60
2023-01-15T11:39:01.065Z,1.25
2023-01-15T11:41:47.993Z,0.85
2023-01-15T11:44:34.468Z,0.95
2023-01-15T11:47:20.418Z,1.10
2023-01-15T11:50:13.430Z,1.00
2023-01-15T11:52:50.962Z,0.95
2023-01-15T11:55:23.736Z,1.05
2023-01-15T11:57:51.996Z,1.83
2023-01-15T12:00:27.547Z,2.97
2023-01-15T12:03:02.954Z,2.08
2023-01-15T12:05:32.716Z,2.38
2023-01-15T12:08:03.829Z,1.58
2023-01-15T12:13:36.003Z,1.73
2023-01-15T12:16:34.700Z,2.97
2023-01-15T12:19:22.818Z,3.10
2023-01-15T12:22:16.942Z,2.75
2023-01-15T12:24:49.688Z,2.67
2023-01-15T12:27:34.219Z,1.90
2023-01-15T12:30:20.815Z,1.88
2023-01-15T12:32:58.284Z,2.13
2023-01-15T12:35:33.134Z,2.65
2023-01-15T12:38:10.000Z,2.65
2023-01-15T12:41:04.557Z,2.30
2023-01-15T12:43:49.714Z,3.05
2023-01-15T12:46:19.866Z,4.45
2023-01-15T12:48:49.207Z,2.67
2023-01-15T12:51:24.502Z,3.13
2023-01-15T12:53:57.523Z,2.42
2023-01-15T12:56:31.160Z,3.70
2023-01-15T12:59:06.719Z,2.42
2023-01-15T13:01:52.286Z,2.47
2023-01-15T13:04:53.791Z,2.63
2023-01-15T13:07:40.707Z,1.23
2023-01-15T13:10:18.761Z,1.45
2023-01-15T13:12:45.546Z,2.15
2023-01-15T13:15:20.246Z,2.63
2023-01-15T13:17:55.381Z,4.10
2023-01-15T13:20:24.694Z,1.58
2023-01-15T13:23:10.174Z,1.73
2023-01-15T13:25:49.134Z,2.75
2023-01-15T13:28:26.585Z,3.28
2023-01-15T13:30:56.145Z,2.38
2023-01-15T13:33:53.935Z,1.88
2023-01-15T13:36:40.622Z,1.40
2023-01-15T13:39:11.388Z,1.48
2023-01-15T13:41:56.464Z,2.33
2023-01-15T13:44:25.614Z,1.70
2023-01-15T13:47:25.933Z,2.47
2023-01-15T13:49:59.782Z,2.60
2023-01-15T13:52:37.385Z,2.05
2023-01-15T13:55:19.457Z,2.08
2023-01-15T13:57:48.767Z,2.17
2023-01-15T14:00:33.457Z,1.23
2023-01-15T14:03:02.924Z,1.00
2023-01-15T14:05:35.357Z,1.45
2023-01-15T14:08:14.370Z,1.63
2023-01-15T14:10:41.254Z,1.92
2023-01-15T14:13:07.967Z,1.48
2023-01-15T14:15:50.919Z,2.45
2023-01-15T14:18:29.142Z,2.90
2023-01-15T14:21:04.983Z,1.75
2023-01-15T14:24:01.100Z,2.15
2023-01-15T14:29:00.279Z,1.90
2023-01-15T14:31:51.730Z,2.05
2023-01-15T14:34:18.357Z,1.30
2023-01-15T14:37:04.823Z,2.17
2023-01-15T14:39:52.614Z,2.25
2023-01-15T14:42:41.136Z,2.90
2023-01-15T14:45:18.119Z,3.50
2023-01-15T14:47:56.025Z,2.80
2023-01-15T14:50:25.609Z,2.47
2023-01-15T14:52:55.127Z,1.02
2023-01-15T14:55:22.398Z,1.77
2023-01-15T14:57:58.868Z,1.65
2023-01-15T15:00:34.016Z,1.58
2023-01-15T15:03:02.075Z,2.05
2023-01-15T15:05:31.420Z,2.60
2023-01-15T15:07:58.262Z,1.40
2023-01-15T15:10:36.549Z,2.70
2023-01-15T15:13:28.017Z,1.52
2023-01-15T15:16:06.361Z,1.95
2023-01-15T15:18:39.871Z,1.25
2023-01-15T15:21:36.005Z,2.03
2023-01-15T15:24:07.505Z,1.83
2023-01-15T15:26:36.317Z,2.08
2023-01-15T15:29:12.615Z,1.42
2023-01-15T15:31:42.949Z,1.67
2023-01-15T15:34:18.023Z,2.47
2023-01-15T15:36:45.952Z,2.45
2023-01-15T15:39:34.345Z,4.22
2023-01-15T15:42:20.945Z,3.97
2023-01-15T15:45:13.520Z,3.00
2023-01-15T15:48:00.701Z,2.10
2023-01-15T15:50:31.444Z,2.83
2023-01-15T15:52:59.011Z,2.92
2023-01-15T15:55:35.838Z,4.07
2023-01-15T15:58:03.452Z,2.25
2023-01-15T16:00:33.181Z,1.92
2023-01-15T16:03:09.100Z,2.65
2023-01-15T16:05:35.719Z,2.40
2023-01-15T16:08:17.849Z,3.13
2023-01-15T16:10:47.879Z,3.42
2023-01-15T16:13:23.279Z,3.75
2023-01-15T16:15:50.945Z,4.07
2023-01-15T16:18:26.219Z,4.38
2023-01-15T16:20:53.226Z,6.10
2023-01-15T16:23:26.461Z,2.90
2023-01-15T16:26:21.601Z,4.35
2023-01-15T16:28:54.802Z,3.80
2023-01-15T16:31:23.271Z,3.28
2023-01-15T16:33:58.141Z,4.88
2023-01-15T16:36:27.189Z,3.17
2023-01-15T16:38:54.525Z,4.85
2023-01-15T16:41:34.311Z,5.65
2023-01-15T16:44:06.236Z,3.10
2023-01-15T16:46:52.728Z,3.08
2023-01-15T16:49:22.191Z,4.50
2023-01-15T16:51:50.033Z,3.80
2023-01-15T16:54:32.005Z,2.70
2023-01-15T16:57:02.866Z,2.40
2023-01-15T16:59:30.266Z,3.45
2023-01-15T17:02:04.974Z,4.20
2023-01-15T17:04:35.258Z,3.45
2023-01-15T17:07:05.493Z,3.53
2023-01-15T17:09:35.379Z,4.50
2023-01-15T17:12:07.549Z,3.83
2023-01-15T17:14:34.144Z,4.97
2023-01-15T17:17:20.280Z,3.85
2023-01-15T17:19:46.887Z,6.53
2023-01-15T17:22:33.182Z,3.97
2023-01-15T17:25:01.306Z,2.85
2023-01-15T17:27:29.948Z,4.05
2023-01-15T17:29:56.898Z,2.65
2023-01-15T17:32:36.172Z,4.15
2023-01-15T17:35:03.129Z,3.03
2023-01-15T17:37:29.612Z,3.95
2023-01-15T17:39:56.148Z,7.28
2023-01-15T17:42:22.790Z,3.72
2023-01-15T17:44:49.303Z,2.63
2023-01-15T17:47:15.978Z,3.78
2023-01-15T17:49:42.642Z,4.82
2023-01-15T17:52:18.480Z,3.05
2023-01-15T17:55:04.116Z,5.00
2023-01-15T17:57:49.190Z,4.63
2023-01-15T18:00:34.917Z,4.85
2023-01-15T18:03:21.391Z,4.97
2023-01-15T18:05:51.208Z,3.60
2023-01-15T18:08:18.892Z,6.70
2023-01-15T18:10:45.504Z,8.13
2023-01-15T18:13:12.918Z,4.90
2023-01-15T18:15:39.463Z,6.57
2023-01-15T18:18:06.011Z,3.85
2023-01-15T18:20:33.144Z,4.13
2023-01-15T18:22:59.695Z,4.90
2023-01-15T18:25:26.336Z,4.88
2023-01-15T18:27:52.974Z,3.88
2023-01-15T18:30:19.792Z,3.97
2023-01-15T18:32:46.344Z,4.90
2023-01-15T18:35:14.283Z,5.15
2023-01-15T18:37:40.842Z,5.85
2023-01-15T18:40:08.015Z,5.00
2023-01-15T18:42:52.962Z,4.35
2023-01-15T18:45:38.170Z,5.85
2023-01-15T18:48:05.021Z,5.88
2023-01-15T18:50:31.528Z,10.48
2023-01-15T18:52:58.093Z,6.97
2023-01-15T18:55:28.240Z,5.30
2023-01-15T18:57:56.144Z,5.45
2023-01-15T19:00:24.662Z,6.40
2023-01-15T19:02:51.865Z,9.02
2023-01-15T19:05:21.366Z,5.28
2023-01-15T19:07:48.071Z,5.03
2023-01-15T19:10:16.425Z,9.23
2023-01-15T19:12:44.665Z,8.43
2023-01-15T19:15:33.483Z,7.22
2023-01-15T19:18:18.554Z,5.85
2023-01-15T19:20:45.442Z,7.22
2023-01-15T19:23:12.055Z,6.93
2023-01-15T19:25:44.848Z,6.63
2023-01-15T19:28:17.866Z,5.18
2023-01-15T19:31:04.558Z,5.18
2023-01-15T19:33:31.920Z,7.60
2023-01-15T19:35:58.486Z,9.68
2023-01-15T19:38:25.029Z,5.78
2023-01-15T19:40:51.687Z,6.28
2023-01-15T19:43:36.913Z,6.22
2023-01-15T19:46:22.412Z,8.25
2023-01-15T19:49:07.483Z,6.03
2023-01-15T19:52:00.249Z,6.18
2023-01-15T19:54:45.165Z,7.60
2023-01-15T19:57:12.326Z,6.80
2023-01-15T19:59:38.938Z,6.72
2023-01-15T20:02:05.513Z,5.97
2023-01-15T20:04:32.225Z,5.13
2023-01-15T20:06:58.750Z,6.20
2023-01-15T20:09:25.271Z,6.10
2023-01-15T20:12:10.668Z,5.97
2023-01-15T20:14:37.201Z,5.82
2023-01-15T20:17:03.816Z,5.32
2023-01-15T20:19:30.511Z,6.93
2023-01-15T20:21:57.043Z,6.70
2023-01-15T20:24:23.599Z,5.03
2023-01-15T20:26:50.259Z,4.85
2023-01-15T20:29:16.815Z,4.85
2023-01-15T20:31:43.456Z,4.80
2023-01-15T20:34:10.138Z,7.57
2023-01-15T20:36:36.701Z,4.95
2023-01-15T20:39:03.519Z,6.88
2023-01-15T20:41:48.684Z,5.38
2023-01-15T20:44:33.943Z,4.07
2023-01-15T20:47:00.660Z,6.57
2023-01-15T20:49:28.956Z,6.03
2023-01-15T20:51:56.613Z,5.68
2023-01-15T20:54:25.154Z,5.53
2023-01-15T20:56:51.844Z,5.03
2023-01-15T20:59:18.375Z,4.65
2023-01-15T21:01:45.018Z,7.15
2023-01-15T21:04:13.691Z,7.82
2023-01-15T21:06:40.470Z,7.07
2023-01-15T21:09:07.086Z,7.15
2023-01-15T21:11:33.807Z,6.03
2023-01-15T21:14:00.297Z,7.90
2023-01-15T21:16:27.134Z,7.03
2023-01-15T21:18:53.863Z,5.60
2023-01-15T21:21:22.189Z,7.25
2023-01-15T21:23:48.927Z,7.30
2023-01-15T21:26:16.199Z,6.80
2023-01-15T21:28:44.664Z,6.05
2023-01-15T21:31:12.428Z,8.43
2023-01-15T21:33:39.941Z,6.70
2023-01-15T21:36:11.888Z,5.68
2023-01-15T21:38:39.088Z,5.72
2023-01-15T21:41:13.148Z,6.15
2023-01-15T21:43:58.648Z,9.32
2023-01-15T21:46:27.916Z,7.95
2023-01-15T21:48:59.018Z,8.40
2023-01-15T21:51:26.916Z,8.70
2023-01-15T21:53:53.677Z,7.43
2023-01-15T21:56:20.440Z,8.30
2023-01-15T21:58:47.276Z,8.45
2023-01-15T22:01:15.897Z,6.05
2023-01-15T22:03:42.492Z,5.50
2023-01-15T22:06:10.221Z,9.02
2023-01-15T22:08:36.971Z,6.80
2023-01-15T22:11:05.654Z,7.88
2023-01-15T22:13:33.372Z,7.13
2023-01-15T22:16:00.728Z,9.68
2023-01-15T22:18:27.831Z,4.78
2023-01-15T22:20:58.452Z,7.13
2023-01-15T22:23:25.126Z,4.72
2023-01-15T22:25:51.798Z,7.20
2023-01-15T22:28:18.349Z,5.22
2023-01-15T22:30:44.948Z,7.65
2023-01-15T22:33:11.835Z,8.00
2023-01-15T22:35:38.444Z,5.03
2023-01-15T22:38:05.180Z,6.55
2023-01-15T22:40:31.944Z,7.00
2023-01-15T22:42:58.591Z,5.30
2023-01-15T22:45:25.148Z,6.05
2023-01-15T22:47:51.653Z,5.93
2023-01-15T22:50:18.221Z,7.32
2023-01-15T22:52:44.829Z,4.95
2023-01-15T22:55:12.591Z,4.65
2023-01-15T22:57:39.162Z,5.15
2023-01-15T23:00:07.297Z,3.55
2023-01-15T23:02:52.690Z,5.82
2023-01-15T23:05:19.286Z,5.22
2023-01-15T23:07:45.829Z,4.25
2023-01-15T23:10:13.585Z,3.63
2023-01-15T23:12:43.391Z,5.38
2023-01-15T23:15:16.225Z,3.53
2023-01-15T23:17:43.899Z,4.68
2023-01-15T23:20:11.805Z,4.88
2023-01-15T23:22:38.555Z,4.38
2023-01-15T23:25:05.454Z,6.00
2023-01-15T23:27:31.998Z,4.13
2023-01-15T23:29:58.647Z,5.30
2023-01-15T23:32:25.280Z,4.65
2023-01-15T23:34:51.793Z,4.57
2023-01-15T23:37:18.454Z,5.80
2023-01-15T23:39:44.996Z,5.97
2023-01-15T23:42:30.367Z,4.88
2023-01-15T23:45:15.941Z,4.90
2023-01-15T23:47:43.481Z,6.30
2023-01-15T23:50:10.497Z,5.90
2023-01-15T23:52:36.995Z,6.30
2023-01-15T23:55:03.767Z,6.97
2023-01-15T23:57:30.348Z,10.93
2023-01-15T23:59:56.838Z,7.63
